createdAt,value
2018-10-21T00:01:39.000Z,101741
2018-10-21T00:03:39.000Z,101743
2018-10-21T00:04:39.000Z,101743
2018-10-21T00:06:39.000Z,101751
2018-10-21T00:08:39.000Z,101752
2018-10-21T00:10:39.000Z,101752
2018-10-21T00:11:39.000Z,101744
2018-10-21T00:12:39.000Z,101750
2018-10-21T00:13:39.000Z,101749
2018-10-21T00:14:40.000Z,101748
2018-10-21T00:15:40.000Z,101751
2018-10-21T00:17:40.000Z,101745
2018-10-21T00:18:40.000Z,101745
2018-10-21T00:19:40.000Z,101744
2018-10-21T00:20:40.000Z,101741
2018-10-21T00:22:24.000Z,101743
2018-10-21T00:23:40.000Z,101745
2018-10-21T00:24:40.000Z,101742
2018-10-21T00:25:40.000Z,101739
2018-10-21T00:27:40.000Z,101745
2018-10-21T00:29:40.000Z,101745
2018-10-21T00:30:40.000Z,101741
2018-10-21T00:32:40.000Z,101737
2018-10-21T00:33:40.000Z,101742
2018-10-21T00:35:40.000Z,101737
2018-10-21T00:37:24.000Z,101732
2018-10-21T00:38:40.000Z,101736
2018-10-21T00:40:40.000Z,101731
2018-10-21T00:42:40.000Z,101727
2018-10-21T00:43:40.000Z,101727
2018-10-21T00:44:40.000Z,101721
2018-10-21T00:45:40.000Z,101719
2018-10-21T00:47:40.000Z,101714
2018-10-21T00:49:40.000Z,101707
2018-10-21T00:51:40.000Z,101707
2018-10-21T00:52:40.000Z,101708
2018-10-21T00:54:40.000Z,101704
2018-10-21T00:56:24.000Z,101701
2018-10-21T00:57:40.000Z,101713
2018-10-21T00:58:40.000Z,101707
2018-10-21T01:00:40.000Z,101709
2018-10-21T01:01:40.000Z,101711
2018-10-21T01:03:40.000Z,101716
2018-10-21T01:04:40.000Z,101716
2018-10-21T01:06:09.000Z,101717
2018-10-21T01:07:40.000Z,101717
2018-10-21T01:09:40.000Z,101715
2018-10-21T01:11:40.000Z,101714
2018-10-21T01:13:40.000Z,101716
2018-10-21T01:15:40.000Z,101718
2018-10-21T01:16:40.000Z,101719
2018-10-21T01:18:24.000Z,101722
2018-10-21T01:19:39.000Z,101723
2018-10-21T01:21:39.000Z,101722
2018-10-21T01:23:39.000Z,101720
2018-10-21T01:24:39.000Z,101718
2018-10-21T01:26:39.000Z,101719
2018-10-21T01:27:39.000Z,101725
2018-10-21T01:28:39.000Z,101722
2018-10-21T01:30:39.000Z,101724
2018-10-21T01:32:24.000Z,101725
2018-10-21T01:33:39.000Z,101727
2018-10-21T01:34:39.000Z,101723
2018-10-21T01:36:39.000Z,101726
2018-10-21T01:38:39.000Z,101725
2018-10-21T01:40:39.000Z,101728
2018-10-21T01:41:39.000Z,101726
2018-10-21T01:42:39.000Z,101730
2018-10-21T01:44:24.000Z,101727
2018-10-21T01:45:39.000Z,101722
2018-10-21T01:47:39.000Z,101720
2018-10-21T01:49:39.000Z,101726
2018-10-21T01:51:39.000Z,101727
2018-10-21T01:52:39.000Z,101726
2018-10-21T01:54:39.000Z,101716
2018-10-21T01:55:39.000Z,101718
2018-10-21T01:57:39.000Z,101714
2018-10-21T01:59:39.000Z,101720
2018-10-21T02:01:39.000Z,101725
2018-10-21T02:02:39.000Z,101721
2018-10-21T02:03:39.000Z,101716
2018-10-21T02:05:39.000Z,101719
2018-10-21T02:07:39.000Z,101715
2018-10-21T02:09:39.000Z,101722
2018-10-21T02:11:39.000Z,101717
2018-10-21T02:13:39.000Z,101718
2018-10-21T02:15:39.000Z,101712
2018-10-21T02:16:39.000Z,101718
2018-10-21T02:18:39.000Z,101722
2018-10-21T02:20:24.000Z,101721
2018-10-21T02:21:39.000Z,101716
2018-10-21T02:23:39.000Z,101722
2018-10-21T02:25:39.000Z,101721
2018-10-21T02:27:39.000Z,101713
2018-10-21T02:28:39.000Z,101715
2018-10-21T02:30:39.000Z,101711
2018-10-21T02:32:39.000Z,101708
2018-10-21T02:34:39.000Z,101714
2018-10-21T02:36:39.000Z,101705
2018-10-21T02:38:24.000Z,101702
2018-10-21T02:39:24.000Z,101702
2018-10-21T02:40:39.000Z,101701
2018-10-21T02:41:39.000Z,101706
2018-10-21T02:42:39.000Z,101705
2018-10-21T02:44:39.000Z,101706
2018-10-21T02:45:39.000Z,101703
2018-10-21T02:47:39.000Z,101700
2018-10-21T02:49:39.000Z,101700
2018-10-21T02:51:39.000Z,101696
2018-10-21T02:52:39.000Z,101699
2018-10-21T02:54:39.000Z,101693
2018-10-21T02:56:39.000Z,101688
2018-10-21T02:58:24.000Z,101690
2018-10-21T02:59:39.000Z,101694
2018-10-21T03:01:39.000Z,101689
2018-10-21T03:03:39.000Z,101688
2018-10-21T03:05:39.000Z,101684
2018-10-21T03:06:39.000Z,101683
2018-10-21T03:08:39.000Z,101683
2018-10-21T03:09:39.000Z,101676
2018-10-21T03:11:39.000Z,101680
2018-10-21T03:12:39.000Z,101686
2018-10-21T03:14:39.000Z,101677
2018-10-21T03:16:24.000Z,101678
2018-10-21T03:17:39.000Z,101675
2018-10-21T03:18:39.000Z,101681
2018-10-21T03:20:39.000Z,101684
2018-10-21T03:21:39.000Z,101684
2018-10-21T03:23:39.000Z,101680
2018-10-21T03:24:39.000Z,101674
2018-10-21T03:26:40.000Z,101666
2018-10-21T03:28:09.000Z,101666
2018-10-21T03:29:40.000Z,101663
2018-10-21T03:31:40.000Z,101665
2018-10-21T03:32:40.000Z,101666
2018-10-21T03:34:09.000Z,101670
2018-10-21T03:35:40.000Z,101668
2018-10-21T03:37:40.000Z,101668
2018-10-21T03:38:40.000Z,101664
2018-10-21T03:40:40.000Z,101667
2018-10-21T03:41:40.000Z,101664
2018-10-21T03:43:24.000Z,101661
2018-10-21T03:44:40.000Z,101657
2018-10-21T03:46:40.000Z,101658
2018-10-21T03:48:40.000Z,101659
2018-10-21T03:49:40.000Z,101659
2018-10-21T03:51:40.000Z,101664
2018-10-21T03:53:40.000Z,101661
2018-10-21T03:54:40.000Z,101661
2018-10-21T03:55:40.000Z,101664
2018-10-21T03:57:40.000Z,101658
2018-10-21T03:59:40.000Z,101660
2018-10-21T04:01:40.000Z,101657
2018-10-21T04:03:40.000Z,101658
2018-10-21T04:04:40.000Z,101661
2018-10-21T04:06:40.000Z,101668
2018-10-21T04:07:40.000Z,101664
2018-10-21T04:09:40.000Z,101668
2018-10-21T04:11:40.000Z,101665
2018-10-21T04:13:40.000Z,101661
2018-10-21T04:14:40.000Z,101659
2018-10-21T04:16:24.000Z,101657
2018-10-21T04:17:40.000Z,101659
2018-10-21T04:18:40.000Z,101654
2018-10-21T04:20:40.000Z,101654
2018-10-21T04:22:40.000Z,101646
2018-10-21T04:24:40.000Z,101650
2018-10-21T04:25:40.000Z,101650
2018-10-21T04:27:40.000Z,101646
2018-10-21T04:28:40.000Z,101637
2018-10-21T04:30:39.000Z,101641
2018-10-21T04:31:39.000Z,101641
2018-10-21T04:33:39.000Z,101637
2018-10-21T04:35:39.000Z,101639
2018-10-21T04:36:39.000Z,101639
2018-10-21T04:38:39.000Z,101639
2018-10-21T04:40:39.000Z,101637
2018-10-21T04:42:39.000Z,101637
2018-10-21T04:44:39.000Z,101643
2018-10-21T04:46:39.000Z,101634
2018-10-21T04:48:39.000Z,101627
2018-10-21T04:50:39.000Z,101631
2018-10-21T04:52:39.000Z,101628
2018-10-21T04:53:39.000Z,101626
2018-10-21T04:55:39.000Z,101631
2018-10-21T04:56:39.000Z,101627
2018-10-21T04:58:39.000Z,101624
2018-10-21T05:00:39.000Z,101624
2018-10-21T05:01:39.000Z,101630
2018-10-21T05:02:39.000Z,101629
2018-10-21T05:03:39.000Z,101630
2018-10-21T05:05:39.000Z,101625
2018-10-21T05:07:39.000Z,101625
2018-10-21T05:09:24.000Z,101621
2018-10-21T05:10:39.000Z,101622
2018-10-21T05:12:24.000Z,101621
2018-10-21T05:13:39.000Z,101623
2018-10-21T05:15:39.000Z,101614
2018-10-21T05:16:39.000Z,101615
2018-10-21T05:18:39.000Z,101618
2018-10-21T05:19:39.000Z,101618
2018-10-21T05:21:24.000Z,101616
2018-10-21T05:22:39.000Z,101616
2018-10-21T05:24:39.000Z,101621
2018-10-21T05:25:39.000Z,101617
2018-10-21T05:26:39.000Z,101621
2018-10-21T05:27:39.000Z,101620
2018-10-21T05:29:39.000Z,101622
2018-10-21T05:31:24.000Z,101619
2018-10-21T05:32:39.000Z,101622
2018-10-21T05:33:39.000Z,101618
2018-10-21T05:35:39.000Z,101617
2018-10-21T05:37:39.000Z,101615
2018-10-21T05:39:39.000Z,101611
2018-10-21T05:40:39.000Z,101619
2018-10-21T05:42:39.000Z,101613
2018-10-21T05:43:39.000Z,101612
2018-10-21T05:45:39.000Z,101612
2018-10-21T05:46:39.000Z,101613
2018-10-21T05:48:39.000Z,101612
2018-10-21T05:50:39.000Z,101608
2018-10-21T05:52:39.000Z,101615
2018-10-21T05:54:39.000Z,101614
2018-10-21T05:56:39.000Z,101616
2018-10-21T05:58:39.000Z,101618
2018-10-21T06:00:39.000Z,101617
2018-10-21T06:02:39.000Z,101625
2018-10-21T06:03:39.000Z,101625
2018-10-21T06:05:24.000Z,101625
2018-10-21T06:06:39.000Z,101626
2018-10-21T06:08:39.000Z,101627
2018-10-21T06:09:39.000Z,101626
2018-10-21T06:11:39.000Z,101628
2018-10-21T06:12:39.000Z,101628
2018-10-21T06:14:24.000Z,101632
2018-10-21T06:15:24.000Z,101633
2018-10-21T06:16:39.000Z,101636
2018-10-21T06:17:39.000Z,101637
2018-10-21T06:19:39.000Z,101640
2018-10-21T06:21:39.000Z,101635
2018-10-21T06:23:39.000Z,101640
2018-10-21T06:25:39.000Z,101637
2018-10-21T06:26:39.000Z,101641
2018-10-21T06:27:39.000Z,101642
2018-10-21T06:28:39.000Z,101643
2018-10-21T06:30:08.000Z,101646
2018-10-21T06:31:39.000Z,101651
2018-10-21T06:33:24.000Z,101651
2018-10-21T06:34:39.000Z,101657
2018-10-21T06:35:39.000Z,101651
2018-10-21T06:37:39.000Z,101654
2018-10-21T06:38:39.000Z,101658
2018-10-21T06:40:39.000Z,101654
2018-10-21T06:42:39.000Z,101654
2018-10-21T06:44:39.000Z,101660
2018-10-21T06:46:39.000Z,101656
2018-10-21T06:48:39.000Z,101669
2018-10-21T06:50:39.000Z,101668
2018-10-21T06:52:24.000Z,101667
2018-10-21T06:53:39.000Z,101676
2018-10-21T06:54:39.000Z,101673
2018-10-21T06:56:39.000Z,101680
2018-10-21T06:58:39.000Z,101680
2018-10-21T07:00:39.000Z,101674
2018-10-21T07:02:39.000Z,101684
2018-10-21T07:03:39.000Z,101682
2018-10-21T07:04:39.000Z,101676
2018-10-21T07:06:39.000Z,101680
2018-10-21T07:08:39.000Z,101682
2018-10-21T07:10:39.000Z,101684
2018-10-21T07:11:39.000Z,101675
2018-10-21T07:13:39.000Z,101680
2018-10-21T07:15:24.000Z,101684
2018-10-21T07:16:39.000Z,101678
2018-10-21T07:17:39.000Z,101681
2018-10-21T07:19:24.000Z,101678
2018-10-21T07:20:39.000Z,101677
2018-10-21T07:22:39.000Z,101678
2018-10-21T07:24:24.000Z,101679
2018-10-21T07:25:39.000Z,101678
2018-10-21T07:27:39.000Z,101677
2018-10-21T07:28:39.000Z,101670
2018-10-21T07:30:39.000Z,101672
2018-10-21T07:31:39.000Z,101673
2018-10-21T07:33:24.000Z,101677
2018-10-21T07:34:39.000Z,101676
2018-10-21T07:35:39.000Z,101676
2018-10-21T07:37:39.000Z,101679
2018-10-21T07:39:39.000Z,101673
2018-10-21T07:41:39.000Z,101676
2018-10-21T07:42:39.000Z,101676
2018-10-21T07:44:39.000Z,101677
2018-10-21T07:45:39.000Z,101682
2018-10-21T07:46:39.000Z,101676
2018-10-21T07:48:24.000Z,101677
2018-10-21T07:49:39.000Z,101670
2018-10-21T07:51:39.000Z,101671
2018-10-21T07:53:39.000Z,101677
2018-10-21T07:55:39.000Z,101679
2018-10-21T07:57:24.000Z,101680
2018-10-21T07:58:39.000Z,101682
2018-10-21T08:00:39.000Z,101685
2018-10-21T08:02:24.000Z,101682
2018-10-21T08:03:39.000Z,101678
2018-10-21T08:05:39.000Z,101679
2018-10-21T08:06:39.000Z,101682
2018-10-21T08:07:39.000Z,101682
2018-10-21T08:09:39.000Z,101679
2018-10-21T08:10:39.000Z,101681
2018-10-21T08:12:39.000Z,101675
2018-10-21T08:14:24.000Z,101679
2018-10-21T08:15:39.000Z,101676
2018-10-21T08:17:39.000Z,101676
2018-10-21T08:19:39.000Z,101680
2018-10-21T08:20:39.000Z,101682
2018-10-21T08:22:39.000Z,101686
2018-10-21T08:23:39.000Z,101687
2018-10-21T08:25:39.000Z,101686
2018-10-21T08:27:24.000Z,101689
2018-10-21T08:28:39.000Z,101692
2018-10-21T08:29:39.000Z,101688
2018-10-21T08:31:39.000Z,101687
2018-10-21T08:32:39.000Z,101688
2018-10-21T08:33:39.000Z,101686
2018-10-21T08:35:39.000Z,101682
2018-10-21T08:37:39.000Z,101682
2018-10-21T08:39:39.000Z,101683
2018-10-21T08:40:39.000Z,101682
2018-10-21T08:42:24.000Z,101687
2018-10-21T08:43:39.000Z,101688
2018-10-21T08:45:24.000Z,101688
2018-10-21T08:46:40.000Z,101685
2018-10-21T08:48:24.000Z,101689
2018-10-21T08:49:40.000Z,101691
2018-10-21T08:50:40.000Z,101693
2018-10-21T08:52:24.000Z,101680
2018-10-21T08:53:40.000Z,101684
2018-10-21T08:54:40.000Z,101686
2018-10-21T08:56:24.000Z,101690
2018-10-21T08:57:40.000Z,101681
2018-10-21T08:58:40.000Z,101689
2018-10-21T08:59:40.000Z,101686
2018-10-21T09:01:40.000Z,101682
2018-10-21T09:03:40.000Z,101683
2018-10-21T09:05:40.000Z,101681
2018-10-21T09:06:40.000Z,101682
2018-10-21T09:08:40.000Z,101679
2018-10-21T09:10:40.000Z,101682
2018-10-21T09:12:40.000Z,101677
2018-10-21T09:14:40.000Z,101681
2018-10-21T09:16:40.000Z,101678
2018-10-21T09:18:40.000Z,101675
2018-10-21T09:20:40.000Z,101679
2018-10-21T09:22:40.000Z,101680
2018-10-21T09:23:40.000Z,101681
2018-10-21T09:25:40.000Z,101678
2018-10-21T09:27:40.000Z,101683
2018-10-21T09:28:40.000Z,101678
2018-10-21T09:30:24.000Z,101678
2018-10-21T09:31:40.000Z,101679
2018-10-21T09:33:40.000Z,101677
2018-10-21T09:34:40.000Z,101680
2018-10-21T09:36:40.000Z,101677
2018-10-21T09:37:40.000Z,101681
2018-10-21T09:39:24.000Z,101679
2018-10-21T09:40:40.000Z,101672
2018-10-21T09:41:40.000Z,101678
2018-10-21T09:42:40.000Z,101677
2018-10-21T09:44:40.000Z,101678
2018-10-21T09:45:40.000Z,101679
2018-10-21T09:47:40.000Z,101679
2018-10-21T09:49:40.000Z,101670
2018-10-21T09:50:39.000Z,101670
2018-10-21T09:51:39.000Z,101675
2018-10-21T09:53:39.000Z,101672
2018-10-21T09:54:39.000Z,101674
2018-10-21T09:56:24.000Z,101676
2018-10-21T09:57:39.000Z,101682
2018-10-21T09:58:39.000Z,101680
2018-10-21T09:59:39.000Z,101679
2018-10-21T10:01:09.000Z,101672
2018-10-21T10:02:39.000Z,101671
2018-10-21T10:04:39.000Z,101667
2018-10-21T10:05:39.000Z,101662
2018-10-21T10:06:39.000Z,101666
2018-10-21T10:07:39.000Z,101665
2018-10-21T10:09:39.000Z,101661
2018-10-21T10:11:39.000Z,101653
2018-10-21T10:13:39.000Z,101647
2018-10-21T10:14:39.000Z,101646
2018-10-21T10:15:39.000Z,101646
2018-10-21T10:17:39.000Z,101645
2018-10-21T10:19:39.000Z,101634
2018-10-21T10:21:39.000Z,101631
2018-10-21T10:23:39.000Z,101632
2018-10-21T10:25:39.000Z,101628
2018-10-21T10:27:39.000Z,101632
2018-10-21T10:29:24.000Z,101626
2018-10-21T10:30:39.000Z,101627
2018-10-21T10:32:24.000Z,101623
2018-10-21T10:33:39.000Z,101625
2018-10-21T10:34:39.000Z,101621
2018-10-21T10:36:39.000Z,101632
2018-10-21T10:37:39.000Z,101635
2018-10-21T10:39:39.000Z,101628
2018-10-21T10:41:39.000Z,101622
2018-10-21T10:43:39.000Z,101623
2018-10-21T10:45:39.000Z,101620
2018-10-21T10:46:39.000Z,101622
2018-10-21T10:48:39.000Z,101615
2018-10-21T10:50:39.000Z,101615
2018-10-21T10:52:39.000Z,101620
2018-10-21T10:53:39.000Z,101616
2018-10-21T10:54:39.000Z,101614
2018-10-21T10:56:39.000Z,101613
2018-10-21T10:57:39.000Z,101611
2018-10-21T10:59:39.000Z,101611
2018-10-21T11:01:24.000Z,101611
2018-10-21T11:02:39.000Z,101604
2018-10-21T11:04:39.000Z,101604
2018-10-21T11:06:39.000Z,101603
2018-10-21T11:08:39.000Z,101603
2018-10-21T11:09:39.000Z,101596
2018-10-21T11:11:39.000Z,101594
2018-10-21T11:12:39.000Z,101602
2018-10-21T11:14:39.000Z,101599
2018-10-21T11:15:39.000Z,101594
2018-10-21T11:16:39.000Z,101592
2018-10-21T11:18:39.000Z,101597
2018-10-21T11:20:24.000Z,101589
2018-10-21T11:21:39.000Z,101589
2018-10-21T11:23:24.000Z,101588
2018-10-21T11:24:39.000Z,101590
2018-10-21T11:26:39.000Z,101588
2018-10-21T11:28:39.000Z,101580
2018-10-21T11:29:39.000Z,101581
2018-10-21T11:31:39.000Z,101579
2018-10-21T11:33:39.000Z,101579
2018-10-21T11:34:39.000Z,101577
2018-10-21T11:36:39.000Z,101570
2018-10-21T11:38:39.000Z,101569
2018-10-21T11:39:39.000Z,101574
2018-10-21T11:41:39.000Z,101572
2018-10-21T11:43:39.000Z,101567
2018-10-21T11:45:24.000Z,101570
2018-10-21T11:46:39.000Z,101567
2018-10-21T11:48:24.000Z,101565
2018-10-21T11:49:39.000Z,101560
2018-10-21T11:51:39.000Z,101563
2018-10-21T11:53:24.000Z,101555
2018-10-21T11:54:39.000Z,101559
2018-10-21T11:55:39.000Z,101558
2018-10-21T11:57:24.000Z,101551
2018-10-21T11:58:24.000Z,101552
2018-10-21T11:59:39.000Z,101545
2018-10-21T12:01:39.000Z,101546
2018-10-21T12:03:39.000Z,101537
2018-10-21T12:05:39.000Z,101537
2018-10-21T12:07:39.000Z,101531
2018-10-21T12:09:24.000Z,101532
2018-10-21T12:10:39.000Z,101524
2018-10-21T12:12:39.000Z,101528
2018-10-21T12:14:39.000Z,101523
2018-10-21T12:15:39.000Z,101525
2018-10-21T12:17:39.000Z,101521
2018-10-21T12:18:39.000Z,101525
2018-10-21T12:20:39.000Z,101520
2018-10-21T12:22:39.000Z,101516
2018-10-21T12:23:39.000Z,101515
2018-10-21T12:25:24.000Z,101515
2018-10-21T12:26:39.000Z,101514
2018-10-21T12:27:39.000Z,101513
2018-10-21T12:28:39.000Z,101507
2018-10-21T12:30:24.000Z,101507
2018-10-21T12:31:39.000Z,101507
2018-10-21T12:33:39.000Z,101506
2018-10-21T12:35:24.000Z,101505
2018-10-21T12:36:39.000Z,101507
2018-10-21T12:37:39.000Z,101502
2018-10-21T12:39:39.000Z,101498
2018-10-21T12:41:09.000Z,101497
2018-10-21T12:42:39.000Z,101499
2018-10-21T12:43:39.000Z,101499
2018-10-21T12:45:39.000Z,101493
2018-10-21T12:47:39.000Z,101491
2018-10-21T12:48:39.000Z,101494
2018-10-21T12:49:39.000Z,101491
2018-10-21T12:51:39.000Z,101492
2018-10-21T12:52:39.000Z,101493
2018-10-21T12:53:39.000Z,101491
2018-10-21T12:55:39.000Z,101485
2018-10-21T12:56:39.000Z,101486
2018-10-21T12:57:39.000Z,101475
2018-10-21T12:59:39.000Z,101483
2018-10-21T13:01:39.000Z,101478
2018-10-21T13:03:40.000Z,101488
2018-10-21T13:04:40.000Z,101483
2018-10-21T13:06:40.000Z,101487
2018-10-21T13:07:40.000Z,101484
2018-10-21T13:09:24.000Z,101478
2018-10-21T13:10:40.000Z,101477
2018-10-21T13:11:40.000Z,101480
2018-10-21T13:13:40.000Z,101472
2018-10-21T13:14:40.000Z,101473
2018-10-21T13:16:24.000Z,101476
2018-10-21T13:17:40.000Z,101469
2018-10-21T13:19:40.000Z,101466
2018-10-21T13:21:40.000Z,101472
2018-10-21T13:23:40.000Z,101465
2018-10-21T13:25:40.000Z,101465
2018-10-21T13:27:40.000Z,101462
2018-10-21T13:29:40.000Z,101461
2018-10-21T13:30:40.000Z,101463
2018-10-21T13:32:40.000Z,101463
2018-10-21T13:34:24.000Z,101459
2018-10-21T13:35:40.000Z,101458
2018-10-21T13:36:40.000Z,101448
2018-10-21T13:38:40.000Z,101447
2018-10-21T13:40:40.000Z,101449
2018-10-21T13:42:40.000Z,101442
2018-10-21T13:44:40.000Z,101433
2018-10-21T13:46:40.000Z,101432
2018-10-21T13:48:40.000Z,101430
2018-10-21T13:49:40.000Z,101439
2018-10-21T13:51:24.000Z,101429
2018-10-21T13:52:40.000Z,101429
2018-10-21T13:53:40.000Z,101426
2018-10-21T13:55:40.000Z,101429
2018-10-21T13:57:40.000Z,101426
2018-10-21T13:58:40.000Z,101419
2018-10-21T14:00:40.000Z,101428
2018-10-21T14:01:40.000Z,101423
2018-10-21T14:02:40.000Z,101426
2018-10-21T14:04:40.000Z,101428
2018-10-21T14:06:24.000Z,101423
2018-10-21T14:07:39.000Z,101418
2018-10-21T14:09:39.000Z,101418
2018-10-21T14:11:24.000Z,101417
2018-10-21T14:12:39.000Z,101415
2018-10-21T14:13:39.000Z,101412
2018-10-21T14:14:39.000Z,101409
2018-10-21T14:16:39.000Z,101418
2018-10-21T14:18:39.000Z,101413
2018-10-21T14:19:39.000Z,101412
2018-10-21T14:21:39.000Z,101403
2018-10-21T14:22:39.000Z,101408
2018-10-21T14:23:39.000Z,101409
2018-10-21T14:25:39.000Z,101406
2018-10-21T14:27:39.000Z,101403
2018-10-21T14:29:39.000Z,101407
2018-10-21T14:30:39.000Z,101407
2018-10-21T14:32:39.000Z,101402
2018-10-21T14:34:39.000Z,101399
2018-10-21T14:36:39.000Z,101399
2018-10-21T14:38:39.000Z,101398
2018-10-21T14:40:39.000Z,101396
2018-10-21T14:42:39.000Z,101392
2018-10-21T14:44:39.000Z,101390
2018-10-21T14:46:39.000Z,101388
2018-10-21T14:47:39.000Z,101384
2018-10-21T14:49:39.000Z,101377
2018-10-21T14:50:39.000Z,101381
2018-10-21T14:52:39.000Z,101375
2018-10-21T14:54:39.000Z,101377
2018-10-21T14:55:39.000Z,101377
2018-10-21T14:57:39.000Z,101374
2018-10-21T14:58:39.000Z,101373
2018-10-21T15:00:39.000Z,101372
2018-10-21T15:02:39.000Z,101372
2018-10-21T15:04:39.000Z,101367
2018-10-21T15:06:39.000Z,101367
2018-10-21T15:07:39.000Z,101370
2018-10-21T15:09:39.000Z,101367
2018-10-21T15:10:39.000Z,101364
2018-10-21T15:11:39.000Z,101362
2018-10-21T15:12:39.000Z,101360
2018-10-21T15:14:24.000Z,101362
2018-10-21T15:15:39.000Z,101363
2018-10-21T15:17:39.000Z,101367
2018-10-21T15:19:39.000Z,101364
2018-10-21T15:21:39.000Z,101367
2018-10-21T15:23:39.000Z,101357
2018-10-21T15:24:39.000Z,101359
2018-10-21T15:25:39.000Z,101361
2018-10-21T15:27:39.000Z,101361
2018-10-21T15:29:39.000Z,101356
2018-10-21T15:30:39.000Z,101361
2018-10-21T15:32:39.000Z,101360
2018-10-21T15:34:39.000Z,101358
2018-10-21T15:36:24.000Z,101353
2018-10-21T15:37:39.000Z,101360
2018-10-21T15:39:39.000Z,101352
2018-10-21T15:41:39.000Z,101354
2018-10-21T15:43:24.000Z,101354
2018-10-21T15:44:24.000Z,101350
2018-10-21T15:45:39.000Z,101354
2018-10-21T15:47:39.000Z,101351
2018-10-21T15:49:39.000Z,101350
2018-10-21T15:50:39.000Z,101354
2018-10-21T15:52:39.000Z,101347
2018-10-21T15:54:24.000Z,101350
2018-10-21T15:55:39.000Z,101348
2018-10-21T15:57:39.000Z,101354
2018-10-21T15:59:39.000Z,101352
2018-10-21T16:00:39.000Z,101348
2018-10-21T16:02:39.000Z,101352
2018-10-21T16:04:39.000Z,101350
2018-10-21T16:06:39.000Z,101345
2018-10-21T16:08:39.000Z,101348
2018-10-21T16:09:39.000Z,101349
2018-10-21T16:10:39.000Z,101351
2018-10-21T16:12:39.000Z,101342
2018-10-21T16:13:39.000Z,101348
2018-10-21T16:15:40.000Z,101351
2018-10-21T16:17:25.000Z,101348
2018-10-21T16:18:40.000Z,101354
2018-10-21T16:19:40.000Z,101349
2018-10-21T16:21:40.000Z,101350
2018-10-21T16:23:25.000Z,101348
2018-10-21T16:24:40.000Z,101351
2018-10-21T16:26:40.000Z,101352
2018-10-21T16:28:40.000Z,101351
2018-10-21T16:30:40.000Z,101349
2018-10-21T16:32:40.000Z,101343
2018-10-21T16:33:40.000Z,101349
2018-10-21T16:35:25.000Z,101348
2018-10-21T16:36:40.000Z,101351
2018-10-21T16:38:40.000Z,101346
2018-10-21T16:40:40.000Z,101346
2018-10-21T16:41:40.000Z,101344
2018-10-21T16:42:40.000Z,101346
2018-10-21T16:44:40.000Z,101353
2018-10-21T16:45:40.000Z,101345
2018-10-21T16:47:40.000Z,101347
2018-10-21T16:49:40.000Z,101342
2018-10-21T16:50:40.000Z,101342
2018-10-21T16:51:40.000Z,101346
2018-10-21T16:53:40.000Z,101337
2018-10-21T16:55:40.000Z,101336
2018-10-21T16:56:40.000Z,101336
2018-10-21T16:57:40.000Z,101336
2018-10-21T16:58:40.000Z,101339
2018-10-21T17:00:40.000Z,101348
2018-10-21T17:02:40.000Z,101349
2018-10-21T17:03:40.000Z,101339
2018-10-21T17:05:25.000Z,101346
2018-10-21T17:06:40.000Z,101349
2018-10-21T17:08:40.000Z,101347
2018-10-21T17:10:40.000Z,101356
2018-10-21T17:12:25.000Z,101358
2018-10-21T17:13:40.000Z,101358
2018-10-21T17:14:40.000Z,101362
2018-10-21T17:15:40.000Z,101351
2018-10-21T17:17:40.000Z,101357
2018-10-21T17:19:09.000Z,101361
2018-10-21T17:20:40.000Z,101360
2018-10-21T17:21:40.000Z,101362
2018-10-21T17:22:40.000Z,101358
2018-10-21T17:24:40.000Z,101362
2018-10-21T17:25:40.000Z,101359
2018-10-21T17:26:40.000Z,101363
2018-10-21T17:28:40.000Z,101365
2018-10-21T17:30:40.000Z,101364
2018-10-21T17:31:40.000Z,101366
2018-10-21T17:33:40.000Z,101363
2018-10-21T17:34:40.000Z,101363
2018-10-21T17:36:40.000Z,101367
2018-10-21T17:38:40.000Z,101370
2018-10-21T17:40:40.000Z,101370
2018-10-21T17:41:40.000Z,101368
2018-10-21T17:43:40.000Z,101367
2018-10-21T17:45:40.000Z,101373
2018-10-21T17:46:40.000Z,101377
2018-10-21T17:48:40.000Z,101370
2018-10-21T17:49:40.000Z,101372
2018-10-21T17:51:40.000Z,101373
2018-10-21T17:53:40.000Z,101376
2018-10-21T17:55:40.000Z,101375
2018-10-21T17:57:40.000Z,101379
2018-10-21T17:58:40.000Z,101380
2018-10-21T18:00:40.000Z,101379
2018-10-21T18:02:40.000Z,101378
2018-10-21T18:04:25.000Z,101379
2018-10-21T18:05:40.000Z,101377
2018-10-21T18:07:25.000Z,101385
2018-10-21T18:08:40.000Z,101377
2018-10-21T18:09:40.000Z,101381
2018-10-21T18:11:40.000Z,101383
2018-10-21T18:12:40.000Z,101378
2018-10-21T18:14:25.000Z,101379
2018-10-21T18:15:40.000Z,101383
2018-10-21T18:17:40.000Z,101383
2018-10-21T18:19:40.000Z,101382
2018-10-21T18:21:40.000Z,101383
2018-10-21T18:22:39.000Z,101381
2018-10-21T18:24:39.000Z,101384
2018-10-21T18:25:39.000Z,101385
2018-10-21T18:27:39.000Z,101388
2018-10-21T18:29:39.000Z,101384
2018-10-21T18:30:39.000Z,101385
2018-10-21T18:31:39.000Z,101386
2018-10-21T18:33:39.000Z,101383
2018-10-21T18:35:24.000Z,101384
2018-10-21T18:36:39.000Z,101378
2018-10-21T18:37:39.000Z,101382
2018-10-21T18:38:39.000Z,101385
2018-10-21T18:40:39.000Z,101382
2018-10-21T18:42:24.000Z,101378
2018-10-21T18:43:39.000Z,101385
2018-10-21T18:45:24.000Z,101380
2018-10-21T18:46:39.000Z,101382
2018-10-21T18:48:39.000Z,101379
2018-10-21T18:49:39.000Z,101380
2018-10-21T18:51:39.000Z,101382
2018-10-21T18:53:39.000Z,101378
2018-10-21T18:54:39.000Z,101376
2018-10-21T18:55:39.000Z,101371
2018-10-21T18:56:39.000Z,101376
2018-10-21T18:58:09.000Z,101370
2018-10-21T18:59:39.000Z,101372
2018-10-21T19:01:39.000Z,101371
2018-10-21T19:02:39.000Z,101368
2018-10-21T19:04:39.000Z,101369
2018-10-21T19:06:39.000Z,101371
2018-10-21T19:07:39.000Z,101367
2018-10-21T19:09:39.000Z,101374
2018-10-21T19:11:39.000Z,101367
2018-10-21T19:13:39.000Z,101371
2018-10-21T19:15:39.000Z,101372
2018-10-21T19:16:39.000Z,101372
2018-10-21T19:18:24.000Z,101374
2018-10-21T19:19:39.000Z,101368
2018-10-21T19:21:39.000Z,101372
2018-10-21T19:22:39.000Z,101369
2018-10-21T19:24:39.000Z,101367
2018-10-21T19:25:39.000Z,101374
2018-10-21T19:27:39.000Z,101373
2018-10-21T19:29:39.000Z,101372
2018-10-21T19:30:39.000Z,101369
2018-10-21T19:31:39.000Z,101372
2018-10-21T19:33:39.000Z,101365
2018-10-21T19:34:39.000Z,101374
2018-10-21T19:35:39.000Z,101372
2018-10-21T19:37:24.000Z,101370
2018-10-21T19:38:39.000Z,101376
2018-10-21T19:40:39.000Z,101374
2018-10-21T19:41:39.000Z,101374
2018-10-21T19:43:39.000Z,101375
2018-10-21T19:45:39.000Z,101372